createdAt,value
2023-02-04T00:01:16.659Z,92.23
2023-02-04T00:06:18.357Z,89.19
2023-02-04T00:11:19.955Z,89.91
2023-02-04T00:16:21.874Z,91.18
2023-02-04T00:21:23.461Z,91.24
2023-02-04T00:26:40.277Z,89.83
2023-02-04T00:31:42.032Z,88.23
2023-02-04T00:36:44.149Z,84.75
2023-02-04T00:41:45.765Z,80.88
2023-02-04T00:46:49.232Z,83.93
2023-02-04T00:51:51.350Z,84.00
2023-02-04T00:56:53.019Z,83.71
2023-02-04T01:01:54.608Z,84.51
2023-02-04T01:06:56.275Z,84.26
2023-02-04T01:11:57.932Z,85.12
2023-02-04T01:17:00.156Z,84.86
2023-02-04T01:22:01.899Z,84.16
2023-02-04T01:27:03.686Z,83.83
2023-02-04T01:32:06.911Z,83.23
2023-02-04T01:37:08.553Z,85.65
2023-02-04T01:42:10.338Z,86.57
2023-02-04T01:47:12.110Z,87.22
2023-02-04T01:52:14.006Z,86.67
2023-02-04T01:57:16.302Z,87.08
2023-02-04T02:02:40.926Z,91.58
2023-02-04T02:07:42.700Z,90.41
2023-02-04T02:12:45.210Z,85.98
2023-02-04T02:17:47.617Z,83.79
2023-02-04T02:22:58.337Z,81.73
2023-02-04T02:28:00.722Z,84.73
2023-02-04T02:33:02.453Z,85.39
2023-02-04T02:38:04.134Z,85.71
2023-02-04T02:43:06.596Z,83.68
2023-02-04T02:48:09.432Z,84.83
2023-02-04T02:53:13.354Z,83.78
2023-02-04T02:58:24.077Z,83.40
2023-02-04T03:03:28.128Z,82.90
2023-02-04T03:08:29.949Z,82.93
2023-02-04T03:13:31.811Z,83.30
2023-02-04T03:18:34.524Z,83.70
2023-02-04T03:23:37.294Z,84.52
2023-02-04T03:28:40.631Z,85.99
2023-02-04T03:33:43.291Z,88.00
2023-02-04T03:38:44.925Z,89.25
2023-02-04T03:43:46.551Z,88.98
2023-02-04T03:48:48.169Z,89.14
2023-02-04T03:53:49.810Z,88.44
2023-02-04T03:58:51.442Z,89.51
2023-02-04T04:03:53.039Z,88.34
2023-02-04T04:08:54.660Z,88.52
2023-02-04T04:13:56.331Z,87.30
2023-02-04T04:18:58.369Z,85.95
2023-02-04T04:23:59.983Z,83.28
2023-02-04T04:29:01.574Z,82.77
2023-02-04T04:34:03.218Z,83.88
2023-02-04T04:39:04.873Z,85.50
2023-02-04T04:44:06.661Z,86.39
2023-02-04T04:49:08.249Z,87.33
2023-02-04T04:54:09.862Z,88.85
2023-02-04T04:59:11.450Z,89.29
2023-02-04T05:04:13.076Z,88.49
2023-02-04T05:09:16.679Z,88.67
2023-02-04T05:14:18.319Z,88.63
2023-02-04T05:19:20.222Z,87.17
2023-02-04T05:24:21.824Z,86.48
2023-02-04T05:29:23.477Z,86.22
2023-02-04T05:34:25.165Z,85.74
2023-02-04T05:39:26.770Z,85.27
2023-02-04T05:44:28.435Z,85.38
2023-02-04T05:49:30.036Z,84.82
2023-02-04T05:54:31.653Z,84.82
2023-02-04T05:59:33.262Z,85.14
2023-02-04T06:04:34.959Z,84.80
2023-02-04T06:09:36.635Z,85.09
2023-02-04T06:14:38.308Z,85.47
2023-02-04T06:19:39.973Z,85.59
2023-02-04T06:24:41.607Z,85.29
2023-02-04T06:29:43.217Z,86.07
2023-02-04T06:34:44.960Z,85.90
2023-02-04T06:39:46.532Z,86.66
2023-02-04T06:44:48.160Z,87.05
2023-02-04T06:49:49.819Z,87.28
2023-02-04T06:54:51.465Z,87.82
2023-02-04T06:59:53.064Z,87.92
2023-02-04T07:04:54.711Z,88.07
2023-02-04T07:09:56.309Z,88.17
2023-02-04T07:14:58.012Z,88.41
2023-02-04T07:19:59.853Z,88.60
2023-02-04T07:25:01.454Z,88.23
2023-02-04T07:30:03.110Z,88.04
2023-02-04T07:35:04.966Z,89.09
2023-02-04T07:40:07.148Z,89.51
2023-02-04T07:45:09.190Z,90.06
2023-02-04T07:50:10.862Z,90.38
2023-02-04T07:55:12.514Z,89.98
2023-02-04T08:00:15.806Z,89.63
2023-02-04T08:05:17.517Z,89.07
2023-02-04T08:10:20.094Z,89.30
2023-02-04T08:15:21.743Z,88.99
2023-02-04T08:20:23.720Z,89.11
2023-02-04T08:25:25.344Z,88.41
2023-02-04T08:30:27.070Z,88.06
2023-02-04T08:35:28.669Z,87.67
2023-02-04T08:40:30.803Z,87.06
2023-02-04T08:45:32.680Z,87.07
2023-02-04T08:50:34.580Z,87.95
2023-02-04T08:55:36.315Z,87.19
2023-02-04T09:00:37.948Z,86.67
2023-02-04T09:05:39.597Z,86.08
2023-02-04T09:10:41.449Z,85.65
2023-02-04T09:15:43.100Z,85.27
2023-02-04T09:20:45.590Z,83.76
2023-02-04T09:25:47.595Z,84.07
2023-02-04T09:30:49.247Z,83.88
2023-02-04T09:35:50.894Z,83.17
2023-02-04T09:40:58.401Z,83.60
2023-02-04T09:46:00.384Z,84.58
2023-02-04T09:51:07.344Z,81.79
2023-02-04T09:56:10.825Z,82.90
2023-02-04T10:01:16.167Z,82.27
2023-02-04T10:06:19.909Z,81.82
2023-02-04T10:11:22.743Z,81.32
2023-02-04T10:16:32.329Z,81.76
2023-02-04T10:21:38.238Z,79.47
2023-02-04T10:26:39.846Z,78.98
2023-02-04T10:31:44.058Z,79.40
2023-02-04T10:36:48.001Z,80.95
2023-02-04T10:41:51.705Z,81.72
2023-02-04T10:47:06.416Z,81.54
2023-02-04T10:52:16.077Z,81.97
2023-02-04T10:57:27.440Z,81.48
2023-02-04T11:02:41.979Z,80.70
2023-02-04T11:07:44.940Z,81.72
2023-02-04T11:13:08.386Z,81.36
2023-02-04T11:18:12.972Z,81.27
2023-02-04T11:23:26.425Z,79.44
2023-02-04T11:28:27.996Z,80.27
2023-02-04T11:33:41.462Z,80.40
2023-02-04T11:38:47.964Z,76.04
2023-02-04T11:43:54.097Z,76.08
2023-02-04T11:48:57.573Z,76.91
2023-02-04T11:53:59.407Z,78.13
2023-02-04T11:59:01.006Z,77.37
2023-02-04T12:04:07.145Z,77.51
2023-02-04T12:09:24.720Z,78.25
2023-02-04T12:14:37.227Z,77.39
2023-02-04T12:19:38.919Z,78.55
2023-02-04T12:24:40.936Z,78.28
2023-02-04T12:29:42.629Z,76.64
2023-02-04T12:34:44.298Z,75.05
2023-02-04T12:39:45.906Z,76.31
2023-02-04T12:44:47.512Z,77.50
2023-02-04T12:49:49.170Z,76.71
2023-02-04T12:54:50.950Z,75.09
2023-02-04T12:59:52.556Z,71.91
2023-02-04T13:04:55.656Z,72.78
2023-02-04T13:09:57.578Z,72.54
2023-02-04T13:14:59.209Z,71.40
2023-02-04T13:20:00.946Z,70.50
2023-02-04T13:25:04.170Z,70.39
2023-02-04T13:30:06.958Z,69.20
2023-02-04T13:35:08.565Z,69.53
2023-02-04T13:40:11.372Z,69.45
2023-02-04T13:45:13.063Z,69.08
2023-02-04T13:50:16.385Z,68.88
2023-02-04T13:55:18.060Z,66.86
2023-02-04T14:00:19.908Z,68.75
2023-02-04T14:05:21.556Z,69.70
2023-02-04T14:10:24.981Z,69.97
2023-02-04T14:15:26.683Z,69.21
2023-02-04T14:20:28.339Z,70.56
2023-02-04T14:25:30.386Z,70.32
2023-02-04T14:30:32.843Z,69.44
2023-02-04T14:35:34.742Z,69.34
2023-02-04T14:40:36.403Z,69.66
2023-02-04T14:45:38.872Z,70.05
2023-02-04T14:50:40.564Z,70.60
2023-02-04T14:55:42.189Z,69.76
2023-02-04T15:00:43.860Z,69.64
2023-02-04T15:05:45.513Z,68.57
2023-02-04T15:10:47.209Z,66.98
2023-02-04T15:15:49.023Z,65.36
2023-02-04T15:20:50.971Z,66.14
2023-02-04T15:25:57.810Z,66.34
2023-02-04T15:30:59.613Z,67.52
2023-02-04T15:36:01.318Z,68.35
2023-02-04T15:41:04.464Z,68.79
2023-02-04T15:46:06.166Z,70.25
2023-02-04T15:51:07.813Z,70.44
2023-02-04T15:56:10.730Z,71.19
2023-02-04T16:01:12.459Z,72.61
2023-02-04T16:06:14.151Z,72.83
2023-02-04T16:11:15.903Z,72.32
2023-02-04T16:16:17.607Z,72.42
2023-02-04T16:21:19.248Z,73.49
2023-02-04T16:26:21.161Z,71.46
2023-02-04T16:31:22.853Z,71.56
2023-02-04T16:36:24.592Z,71.99
2023-02-04T16:41:26.242Z,72.25
2023-02-04T16:46:30.458Z,73.75
2023-02-04T16:51:32.208Z,74.78
2023-02-04T16:56:35.563Z,75.59
2023-02-04T17:01:37.191Z,76.76
2023-02-04T17:06:38.869Z,78.23
2023-02-04T17:11:40.974Z,77.57
2023-02-04T17:16:46.858Z,75.90
2023-02-04T17:21:49.057Z,76.05
2023-02-04T17:26:50.905Z,76.78
2023-02-04T17:31:53.038Z,77.50
2023-02-04T17:36:54.892Z,78.04
2023-02-04T17:41:56.705Z,79.00
2023-02-04T17:46:59.046Z,78.82
2023-02-04T17:52:00.923Z,79.05
2023-02-04T17:57:20.346Z,79.51
2023-02-04T18:02:29.753Z,78.89
2023-02-04T18:07:31.874Z,78.72
2023-02-04T18:12:36.041Z,79.67
2023-02-04T18:17:37.665Z,78.63
2023-02-04T18:22:39.273Z,77.74
2023-02-04T18:27:41.375Z,78.22
2023-02-04T18:32:43.057Z,78.65
2023-02-04T18:37:49.144Z,79.53
2023-02-04T18:42:58.372Z,79.58
2023-02-04T18:48:18.288Z,79.29
2023-02-04T18:53:19.912Z,79.75
2023-02-04T18:58:39.632Z,80.53
2023-02-04T19:04:02.186Z,80.73
2023-02-04T19:09:09.935Z,82.29
2023-02-04T19:14:39.037Z,80.61
2023-02-04T19:19:43.922Z,80.37
2023-02-04T19:24:46.616Z,80.24
2023-02-04T19:29:49.734Z,80.23
2023-02-04T19:34:52.786Z,80.65
2023-02-04T19:39:55.619Z,78.55
2023-02-04T19:45:02.573Z,78.78
2023-02-04T19:50:13.516Z,78.35
2023-02-04T19:55:18.067Z,78.51
2023-02-04T20:00:36.077Z,76.63
2023-02-04T20:05:37.822Z,75.71
2023-02-04T20:10:39.632Z,76.08
2023-02-04T20:15:41.423Z,76.93
2023-02-04T20:20:45.229Z,77.45
2023-02-04T20:25:48.612Z,77.50
2023-02-04T20:30:51.788Z,77.25
2023-02-04T20:36:30.041Z,78.06
2023-02-04T20:41:35.560Z,78.24
2023-02-04T20:46:37.471Z,79.38
2023-02-04T20:51:39.152Z,79.31
2023-02-04T20:56:41.489Z,78.57
2023-02-04T21:01:45.476Z,79.43
2023-02-04T21:06:47.288Z,78.73
2023-02-04T21:11:49.340Z,77.64
2023-02-04T21:16:51.068Z,77.82
2023-02-04T21:21:52.798Z,78.23
2023-02-04T21:26:54.610Z,76.28
2023-02-04T21:31:56.283Z,75.93
2023-02-04T21:36:57.930Z,74.18
2023-02-04T21:42:11.729Z,73.98
2023-02-04T21:47:15.681Z,74.17
2023-02-04T21:52:17.298Z,75.05
2023-02-04T21:57:19.065Z,73.99
2023-02-04T22:02:21.506Z,75.57
2023-02-04T22:07:23.181Z,74.64
2023-02-04T22:12:24.791Z,75.97
2023-02-04T22:17:26.489Z,75.14
2023-02-04T22:22:28.170Z,74.19
2023-02-04T22:27:29.959Z,75.57
2023-02-04T22:32:31.772Z,72.87
2023-02-04T22:37:34.306Z,73.83
2023-02-04T22:42:36.182Z,74.50
2023-02-04T22:47:38.329Z,76.27
2023-02-04T22:52:40.055Z,74.82
2023-02-04T22:57:41.715Z,74.52
2023-02-04T23:02:43.451Z,75.57
2023-02-04T23:07:45.383Z,75.92
2023-02-04T23:12:47.066Z,77.56
2023-02-04T23:17:48.710Z,77.63
2023-02-04T23:22:50.348Z,77.07
2023-02-04T23:27:52.006Z,77.64
2023-02-04T23:32:54.141Z,77.44
2023-02-04T23:37:55.819Z,75.94
2023-02-04T23:42:57.533Z,77.21
2023-02-04T23:47:59.190Z,77.07
2023-02-04T23:53:00.875Z,76.63
2023-02-04T23:58:02.539Z,78.77
